createdAt,value
2023-03-30T00:01:04.478Z,61.65
2023-03-30T00:02:38.749Z,62.10
2023-03-30T00:04:12.714Z,61.63
2023-03-30T00:06:05.585Z,62.00
2023-03-30T00:07:47.379Z,61.54
2023-03-30T00:09:30.713Z,61.70
2023-03-30T00:10:55.839Z,61.68
2023-03-30T00:12:32.284Z,62.03
2023-03-30T00:14:17.835Z,62.17
2023-03-30T00:15:51.554Z,61.95
2023-03-30T00:17:13.048Z,62.12
2023-03-30T00:19:07.049Z,62.06
2023-03-30T00:20:29.000Z,62.31
2023-03-30T00:22:13.892Z,62.19
2023-03-30T00:23:56.023Z,62.24
2023-03-30T00:25:29.380Z,63.08
2023-03-30T00:27:03.228Z,62.67
2023-03-30T00:28:38.815Z,59.77
2023-03-30T00:30:24.025Z,54.65
2023-03-30T00:32:10.665Z,53.17
2023-03-30T00:33:49.743Z,53.48
2023-03-30T00:35:24.336Z,54.51
2023-03-30T00:37:05.354Z,55.45
2023-03-30T00:38:29.395Z,55.85
2023-03-30T00:39:53.107Z,56.43
2023-03-30T00:41:43.011Z,57.07
2023-03-30T00:43:16.308Z,57.77
2023-03-30T00:44:47.189Z,58.46
2023-03-30T00:46:40.551Z,58.48
2023-03-30T00:48:21.745Z,58.88
2023-03-30T00:49:55.326Z,59.28
2023-03-30T00:51:30.948Z,59.51
2023-03-30T00:53:17.974Z,59.91
2023-03-30T00:54:58.634Z,60.29
2023-03-30T00:56:40.121Z,60.37
2023-03-30T00:58:25.187Z,60.77
2023-03-30T01:00:01.718Z,60.99
2023-03-30T01:01:39.060Z,61.03
2023-03-30T01:03:24.633Z,61.24
2023-03-30T01:06:58.014Z,61.55
2023-03-30T01:08:45.521Z,61.96
2023-03-30T01:10:18.734Z,62.07
2023-03-30T01:11:40.444Z,61.99
2023-03-30T01:13:17.011Z,62.34
2023-03-30T01:14:51.485Z,62.61
2023-03-30T01:16:27.506Z,62.80
2023-03-30T01:18:12.424Z,58.98
2023-03-30T01:19:57.326Z,54.34
2023-03-30T01:21:50.451Z,53.70
2023-03-30T01:23:39.007Z,54.30
2023-03-30T01:25:22.391Z,55.40
2023-03-30T01:27:07.891Z,56.49
2023-03-30T01:28:43.653Z,57.40
2023-03-30T01:30:05.710Z,57.96
2023-03-30T01:31:46.203Z,58.57
2023-03-30T01:33:31.121Z,59.06
2023-03-30T01:35:11.008Z,59.68
2023-03-30T01:36:37.146Z,60.05
2023-03-30T01:38:03.975Z,60.66
2023-03-30T01:39:51.611Z,61.32
2023-03-30T01:41:36.878Z,61.39
2023-03-30T01:43:17.874Z,61.75
2023-03-30T01:44:53.997Z,62.29
2023-03-30T01:46:42.197Z,63.25
2023-03-30T01:48:18.628Z,63.27
2023-03-30T01:49:48.427Z,59.83
2023-03-30T01:51:23.852Z,55.53
2023-03-30T01:52:58.494Z,54.11
2023-03-30T01:54:34.081Z,54.33
2023-03-30T01:56:10.186Z,55.18
2023-03-30T01:57:55.622Z,56.15
2023-03-30T01:59:27.294Z,57.04
2023-03-30T02:01:04.272Z,57.94
2023-03-30T02:02:50.463Z,58.48
2023-03-30T02:04:35.954Z,59.07
2023-03-30T02:06:16.684Z,59.66
2023-03-30T02:08:02.499Z,60.18
2023-03-30T02:09:48.578Z,60.71
2023-03-30T02:11:24.556Z,61.18
2023-03-30T02:12:58.012Z,61.52
2023-03-30T02:14:33.640Z,62.18
2023-03-30T02:16:19.397Z,62.36
2023-03-30T02:17:54.633Z,63.34
2023-03-30T02:19:40.072Z,62.46
2023-03-30T02:21:24.831Z,58.13
2023-03-30T02:23:06.192Z,54.41
2023-03-30T02:24:36.314Z,53.87
2023-03-30T02:26:09.656Z,54.65
2023-03-30T02:27:36.829Z,55.69
2023-03-30T02:29:10.130Z,56.65
2023-03-30T02:30:55.266Z,57.60
2023-03-30T02:32:22.946Z,58.48
2023-03-30T02:33:59.189Z,59.22
2023-03-30T02:35:34.880Z,60.00
2023-03-30T02:36:57.056Z,60.40
2023-03-30T02:38:28.287Z,60.83
2023-03-30T02:40:08.859Z,61.45
2023-03-30T02:41:42.217Z,61.72
2023-03-30T02:43:03.937Z,62.36
2023-03-30T02:44:37.358Z,62.85
2023-03-30T02:46:18.538Z,63.58
2023-03-30T02:47:53.007Z,61.25
2023-03-30T02:49:38.098Z,57.06
2023-03-30T02:51:11.385Z,54.15
2023-03-30T02:53:05.182Z,54.43
2023-03-30T02:54:51.026Z,55.52
2023-03-30T02:56:12.673Z,56.61
2023-03-30T02:58:15.587Z,57.70
2023-03-30T03:00:08.772Z,58.91
2023-03-30T03:01:42.867Z,59.70
2023-03-30T03:03:21.805Z,60.23
2023-03-30T03:04:59.152Z,60.72
2023-03-30T03:06:55.746Z,61.56
2023-03-30T03:08:29.085Z,62.24
2023-03-30T03:10:13.945Z,62.94
2023-03-30T03:11:59.050Z,63.26
2023-03-30T03:13:48.644Z,59.93
2023-03-30T03:15:22.408Z,55.33
2023-03-30T03:17:28.750Z,54.29
2023-03-30T03:19:04.578Z,55.05
2023-03-30T03:20:50.396Z,56.15
2023-03-30T03:22:38.329Z,57.46
2023-03-30T03:24:19.800Z,58.31
2023-03-30T03:26:28.929Z,59.52
2023-03-30T03:28:04.790Z,60.24
2023-03-30T03:29:48.716Z,60.92
2023-03-30T03:31:22.107Z,61.68
2023-03-30T03:32:57.672Z,62.27
2023-03-30T03:34:33.675Z,62.93
2023-03-30T03:36:22.620Z,63.38
2023-03-30T03:38:11.676Z,59.78
2023-03-30T03:39:56.837Z,55.36
2023-03-30T03:41:50.398Z,54.37
2023-03-30T03:43:26.550Z,55.14
2023-03-30T03:45:15.864Z,56.28
2023-03-30T03:47:02.605Z,57.70
2023-03-30T03:48:24.745Z,58.51
2023-03-30T03:50:09.852Z,59.36
2023-03-30T03:51:46.739Z,60.01
2023-03-30T03:53:27.758Z,60.83
2023-03-30T03:55:04.659Z,61.80
2023-03-30T03:56:49.954Z,62.11
2023-03-30T03:58:20.970Z,63.48
2023-03-30T03:59:51.061Z,63.81
2023-03-30T04:01:35.810Z,60.79
2023-03-30T04:03:05.457Z,56.53
2023-03-30T04:04:50.263Z,54.47
2023-03-30T04:06:30.796Z,55.12
2023-03-30T04:08:04.534Z,56.25
2023-03-30T04:09:30.917Z,57.28
2023-03-30T04:11:23.433Z,58.38
2023-03-30T04:13:08.733Z,59.61
2023-03-30T04:15:23.596Z,60.70
2023-03-30T04:17:15.501Z,61.49
2023-03-30T04:19:27.887Z,62.75
2023-03-30T04:21:25.231Z,63.33
2023-03-30T04:22:50.123Z,60.94
2023-03-30T04:24:55.225Z,56.29
2023-03-30T04:26:43.824Z,54.40
2023-03-30T04:28:36.285Z,55.37
2023-03-30T04:30:47.902Z,56.92
2023-03-30T04:32:34.660Z,58.23
2023-03-30T04:34:40.838Z,59.40
2023-03-30T04:36:23.214Z,60.18
2023-03-30T04:38:02.597Z,61.00
2023-03-30T04:39:41.671Z,61.88
2023-03-30T04:41:53.863Z,63.35
2023-03-30T04:43:55.176Z,61.67
2023-03-30T04:45:53.924Z,57.38
2023-03-30T04:47:50.271Z,54.64
2023-03-30T04:49:38.831Z,55.30
2023-03-30T04:52:06.657Z,56.89
2023-03-30T04:53:46.921Z,58.38
2023-03-30T04:56:07.476Z,59.72
2023-03-30T04:57:41.767Z,60.64
2023-03-30T05:00:05.701Z,61.85
2023-03-30T05:02:11.660Z,63.03
2023-03-30T05:03:45.156Z,63.25
2023-03-30T05:05:35.201Z,60.21
2023-03-30T05:07:33.897Z,55.57
2023-03-30T05:09:18.170Z,54.71
2023-03-30T05:11:14.877Z,55.93
2023-03-30T05:13:16.038Z,57.43
2023-03-30T05:15:09.770Z,58.83
2023-03-30T05:17:04.448Z,60.12
2023-03-30T05:18:33.396Z,61.11
2023-03-30T05:20:52.948Z,62.22
2023-03-30T05:22:40.776Z,63.67
2023-03-30T05:24:48.480Z,61.87
2023-03-30T05:26:47.371Z,57.30
2023-03-30T05:28:54.086Z,54.82
2023-03-30T05:31:08.803Z,56.41
2023-03-30T05:33:15.014Z,58.21
2023-03-30T05:35:15.084Z,59.90
2023-03-30T05:37:00.042Z,60.91
2023-03-30T05:38:51.507Z,61.67
2023-03-30T05:41:19.272Z,63.60
2023-03-30T05:42:56.633Z,62.83
2023-03-30T05:44:42.348Z,59.35
2023-03-30T05:46:35.779Z,55.48
2023-03-30T05:48:29.077Z,55.50
2023-03-30T05:50:46.629Z,57.35
2023-03-30T05:52:40.384Z,58.94
2023-03-30T05:55:10.537Z,60.90
2023-03-30T05:57:25.647Z,62.18
2023-03-30T05:59:13.544Z,63.62
2023-03-30T06:01:19.316Z,62.34
2023-03-30T06:02:55.374Z,58.30
2023-03-30T06:04:32.579Z,55.49
2023-03-30T06:06:06.144Z,55.57
2023-03-30T06:08:00.205Z,56.90
2023-03-30T06:09:26.645Z,58.29
2023-03-30T06:11:08.640Z,59.55
2023-03-30T06:12:41.101Z,60.69
2023-03-30T06:14:22.052Z,61.71
2023-03-30T06:16:06.725Z,63.10
2023-03-30T06:17:35.675Z,64.31
2023-03-30T06:19:20.767Z,62.00
2023-03-30T06:20:57.471Z,58.04
2023-03-30T06:22:31.955Z,55.29
2023-03-30T06:24:36.574Z,55.50
2023-03-30T06:26:11.197Z,56.67
2023-03-30T06:27:59.833Z,58.53
2023-03-30T06:29:33.179Z,59.64
2023-03-30T06:31:02.707Z,60.66
2023-03-30T06:32:38.770Z,61.76
2023-03-30T06:34:51.085Z,62.44
2023-03-30T06:36:45.267Z,63.90
2023-03-30T06:38:21.404Z,61.81
2023-03-30T06:39:59.142Z,58.35
2023-03-30T06:41:24.071Z,55.36
2023-03-30T06:42:57.056Z,55.39
2023-03-30T06:44:34.969Z,56.43
2023-03-30T06:46:21.152Z,57.82
2023-03-30T06:47:54.259Z,59.08
2023-03-30T06:49:31.215Z,60.25
2023-03-30T06:51:13.003Z,61.03
2023-03-30T06:52:49.191Z,62.07
2023-03-30T06:54:23.432Z,62.75
2023-03-30T06:55:56.804Z,63.96
2023-03-30T06:57:37.818Z,61.46
2023-03-30T06:59:34.320Z,57.62
2023-03-30T07:01:27.190Z,54.84
2023-03-30T07:03:23.116Z,55.73
2023-03-30T07:05:11.624Z,56.90
2023-03-30T07:07:05.563Z,58.49
2023-03-30T07:08:46.482Z,59.61
2023-03-30T07:10:33.463Z,60.83
2023-03-30T07:12:19.906Z,61.62
2023-03-30T07:14:05.444Z,62.30
2023-03-30T07:15:50.723Z,63.18
2023-03-30T07:17:38.361Z,63.41
2023-03-30T07:19:11.853Z,59.55
2023-03-30T07:20:47.983Z,56.16
2023-03-30T07:22:23.138Z,54.78
2023-03-30T07:24:08.410Z,55.35
2023-03-30T07:25:54.355Z,56.69
2023-03-30T07:27:50.086Z,57.96
2023-03-30T07:29:36.949Z,59.28
2023-03-30T07:31:22.803Z,59.77
2023-03-30T07:32:52.093Z,60.58
2023-03-30T07:34:13.696Z,60.96
2023-03-30T07:36:03.547Z,61.36
2023-03-30T07:37:39.465Z,61.83
2023-03-30T07:39:24.375Z,62.26
2023-03-30T07:40:58.402Z,63.10
2023-03-30T07:42:42.042Z,62.95
2023-03-30T07:44:17.783Z,59.54
2023-03-30T07:46:03.111Z,55.31
2023-03-30T07:47:41.066Z,54.32
2023-03-30T07:49:16.716Z,55.03
2023-03-30T07:50:52.623Z,55.92
2023-03-30T07:52:38.916Z,57.29
2023-03-30T07:54:13.738Z,58.16
2023-03-30T07:55:47.564Z,59.33
2023-03-30T07:57:39.458Z,59.67
2023-03-30T07:59:13.601Z,60.22
2023-03-30T08:00:54.638Z,60.79
2023-03-30T08:02:43.271Z,61.10
2023-03-30T08:04:19.111Z,61.33
2023-03-30T08:05:55.355Z,61.56
2023-03-30T08:07:17.843Z,61.72
2023-03-30T08:08:51.077Z,61.77
2023-03-30T08:10:13.571Z,61.85
2023-03-30T08:11:37.561Z,62.10
2023-03-30T08:13:01.629Z,63.30
2023-03-30T08:14:30.732Z,62.48
2023-03-30T08:16:11.657Z,58.90
2023-03-30T08:17:33.733Z,54.82
2023-03-30T08:18:55.782Z,53.09
2023-03-30T08:20:22.555Z,53.08
2023-03-30T08:21:51.554Z,53.55
2023-03-30T08:23:24.674Z,54.32
2023-03-30T08:24:57.202Z,55.32
2023-03-30T08:26:30.922Z,56.24
2023-03-30T08:28:11.947Z,56.86
2023-03-30T08:29:56.336Z,57.06
2023-03-30T08:31:32.861Z,57.74
2023-03-30T08:33:17.768Z,57.95
2023-03-30T08:35:03.291Z,57.88
2023-03-30T08:36:39.016Z,58.12
2023-03-30T08:38:08.213Z,58.25
2023-03-30T08:39:41.704Z,58.48
2023-03-30T08:41:22.332Z,58.55
2023-03-30T08:42:57.840Z,58.89
2023-03-30T08:44:31.134Z,58.86
2023-03-30T08:46:06.387Z,59.01
2023-03-30T08:47:31.183Z,59.25
2023-03-30T08:49:02.537Z,59.48
2023-03-30T08:50:35.897Z,59.56
2023-03-30T08:52:09.182Z,59.57
2023-03-30T08:53:45.136Z,59.55
2023-03-30T08:55:38.669Z,59.77
2023-03-30T08:57:24.004Z,59.81
2023-03-30T08:58:57.543Z,59.75
2023-03-30T09:00:32.197Z,59.82
2023-03-30T09:01:53.783Z,59.86
2023-03-30T09:03:29.890Z,59.96
2023-03-30T09:05:06.217Z,59.95
2023-03-30T09:06:46.985Z,60.30
2023-03-30T09:08:40.551Z,60.44
2023-03-30T09:10:35.411Z,60.59
2023-03-30T09:12:08.654Z,61.10
2023-03-30T09:13:54.848Z,61.25
2023-03-30T09:15:24.000Z,61.47
2023-03-30T09:17:17.757Z,61.42
2023-03-30T09:18:51.017Z,61.60
2023-03-30T09:20:27.817Z,61.60
2023-03-30T09:22:12.802Z,61.75
2023-03-30T09:23:35.985Z,62.11
2023-03-30T09:25:21.543Z,62.30
2023-03-30T09:26:54.916Z,62.25
2023-03-30T09:28:21.296Z,62.34
2023-03-30T09:29:55.790Z,62.56
2023-03-30T09:31:41.035Z,63.13
2023-03-30T09:33:10.382Z,60.60
2023-03-30T09:34:55.422Z,56.24
2023-03-30T09:36:44.299Z,53.96
2023-03-30T09:38:21.489Z,53.97
2023-03-30T09:40:02.599Z,54.58
2023-03-30T09:41:45.376Z,55.34
2023-03-30T09:43:30.484Z,56.34
2023-03-30T09:45:15.496Z,57.02
2023-03-30T09:46:49.988Z,57.27
2023-03-30T09:48:23.545Z,57.67
2023-03-30T09:49:57.158Z,57.21
2023-03-30T09:51:31.518Z,57.44
2023-03-30T09:52:53.699Z,57.56
2023-03-30T09:54:39.128Z,57.77
2023-03-30T09:56:13.068Z,57.98
2023-03-30T09:57:44.687Z,58.31
2023-03-30T09:59:18.201Z,58.55
2023-03-30T10:00:59.147Z,58.60
2023-03-30T10:02:40.718Z,59.34
2023-03-30T10:04:16.215Z,60.01
2023-03-30T10:05:49.998Z,60.08
2023-03-30T10:07:18.868Z,60.41
2023-03-30T10:09:13.401Z,60.39
2023-03-30T10:10:48.848Z,60.29
2023-03-30T10:12:24.874Z,60.53
2023-03-30T10:14:10.210Z,60.68
2023-03-30T10:15:46.089Z,60.82
2023-03-30T10:17:31.018Z,61.08
2023-03-30T10:18:55.710Z,61.10
2023-03-30T10:20:41.408Z,61.10
2023-03-30T10:22:28.153Z,61.28
2023-03-30T10:24:12.768Z,61.53
2023-03-30T10:25:48.735Z,61.46
2023-03-30T10:27:37.391Z,61.75
2023-03-30T10:29:18.119Z,61.37
2023-03-30T10:31:11.490Z,60.94
2023-03-30T10:32:56.572Z,61.35
2023-03-30T10:34:48.886Z,60.86
2023-03-30T10:36:11.340Z,61.32
2023-03-30T10:37:52.118Z,61.51
2023-03-30T10:39:23.402Z,61.60
2023-03-30T10:41:12.410Z,61.20
2023-03-30T10:42:33.887Z,61.18
2023-03-30T10:44:07.181Z,61.05
2023-03-30T10:45:36.557Z,61.06
2023-03-30T10:47:12.265Z,61.28
2023-03-30T10:48:55.407Z,61.89
2023-03-30T10:50:28.791Z,61.66
2023-03-30T10:52:14.054Z,61.92
2023-03-30T10:54:08.512Z,61.53
2023-03-30T10:55:44.112Z,61.76
2023-03-30T10:57:18.069Z,61.56
2023-03-30T10:59:03.241Z,61.64
2023-03-30T11:00:46.611Z,62.20
2023-03-30T11:02:08.705Z,63.14
2023-03-30T11:03:37.808Z,62.54
2023-03-30T11:05:01.937Z,59.45
2023-03-30T11:06:55.419Z,55.60
2023-03-30T11:08:35.998Z,53.82
2023-03-30T11:10:17.565Z,53.65
2023-03-30T11:11:51.122Z,54.02
2023-03-30T11:13:25.087Z,54.77
2023-03-30T11:15:17.999Z,55.14
2023-03-30T11:16:58.662Z,55.89
2023-03-30T11:18:32.619Z,56.43
2023-03-30T11:20:07.051Z,56.68
2023-03-30T11:21:42.890Z,57.08
2023-03-30T11:23:28.393Z,57.29
2023-03-30T11:24:52.040Z,57.23
2023-03-30T11:26:16.742Z,57.88
2023-03-30T11:27:50.367Z,57.99
2023-03-30T11:29:24.226Z,57.89
2023-03-30T11:31:09.724Z,58.14
2023-03-30T11:32:52.616Z,58.25
2023-03-30T11:34:14.121Z,58.30
2023-03-30T11:35:47.146Z,58.41
2023-03-30T11:37:21.000Z,58.21
2023-03-30T11:38:56.535Z,58.29
2023-03-30T11:40:29.562Z,58.81
2023-03-30T11:42:10.919Z,58.88
2023-03-30T11:43:55.991Z,59.31
2023-03-30T11:45:49.393Z,59.12
2023-03-30T11:47:13.869Z,59.13
2023-03-30T11:49:04.935Z,58.57
2023-03-30T11:50:29.834Z,58.45
2023-03-30T11:51:52.654Z,58.67
2023-03-30T11:53:28.114Z,58.48
2023-03-30T11:55:03.669Z,58.22
2023-03-30T11:56:38.672Z,57.68
2023-03-30T11:58:23.678Z,57.67
2023-03-30T12:00:09.471Z,57.74
2023-03-30T12:01:45.561Z,58.01
2023-03-30T12:03:21.513Z,57.84
2023-03-30T12:04:55.126Z,57.35
2023-03-30T12:06:17.281Z,57.38
2023-03-30T12:07:50.821Z,57.22
2023-03-30T12:09:26.739Z,57.18
2023-03-30T12:10:57.996Z,57.29
2023-03-30T12:12:42.225Z,57.44
2023-03-30T12:14:22.784Z,57.46
2023-03-30T12:15:55.836Z,57.13
2023-03-30T12:17:42.029Z,57.08
2023-03-30T12:19:27.458Z,57.20
2023-03-30T12:21:00.914Z,57.56
2023-03-30T12:22:34.864Z,57.54
2023-03-30T12:24:15.644Z,57.77
2023-03-30T12:25:56.432Z,57.90
2023-03-30T12:27:37.291Z,57.82
2023-03-30T12:30:49.957Z,57.84
2023-03-30T12:32:13.837Z,57.65
2023-03-30T12:33:47.148Z,57.58
2023-03-30T12:35:28.170Z,57.69
2023-03-30T12:37:09.941Z,57.27
2023-03-30T12:38:55.360Z,57.43
2023-03-30T12:40:24.475Z,57.58
2023-03-30T12:41:48.729Z,57.74
2023-03-30T12:43:22.021Z,57.93
2023-03-30T12:44:55.477Z,58.53
2023-03-30T12:46:37.548Z,58.94
2023-03-30T12:48:22.718Z,59.84
2023-03-30T12:49:46.947Z,59.92
2023-03-30T12:51:10.943Z,59.93
2023-03-30T12:52:32.905Z,60.17
2023-03-30T12:54:09.012Z,60.18
2023-03-30T12:56:02.723Z,60.30
2023-03-30T12:57:27.055Z,60.58
2023-03-30T12:59:00.682Z,60.97
2023-03-30T13:00:53.846Z,61.48
2023-03-30T13:02:23.027Z,61.59
2023-03-30T13:03:57.833Z,61.58
2023-03-30T13:05:19.910Z,62.32
2023-03-30T13:06:53.314Z,61.95
2023-03-30T13:08:29.384Z,62.12
2023-03-30T13:09:51.427Z,62.14
2023-03-30T13:11:13.405Z,61.89
2023-03-30T13:12:37.900Z,62.03
2023-03-30T13:14:02.160Z,62.10
2023-03-30T13:15:23.942Z,62.01
2023-03-30T13:16:45.762Z,62.28
2023-03-30T13:18:21.874Z,62.67
2023-03-30T13:20:02.651Z,61.92
2023-03-30T13:21:36.301Z,58.27
2023-03-30T13:23:15.060Z,55.27
2023-03-30T13:24:51.186Z,54.33
2023-03-30T13:26:35.469Z,54.77
2023-03-30T13:28:20.753Z,54.84
2023-03-30T13:29:42.174Z,55.36
2023-03-30T13:31:26.983Z,55.78
2023-03-30T13:32:50.619Z,56.04
2023-03-30T13:34:24.303Z,56.67
2023-03-30T13:35:48.035Z,57.21
2023-03-30T13:37:10.140Z,57.62
2023-03-30T13:38:51.628Z,57.74
2023-03-30T13:40:37.950Z,58.02
2023-03-30T13:42:15.447Z,58.73
2023-03-30T13:43:50.372Z,58.93
2023-03-30T13:45:24.179Z,59.11
2023-03-30T13:46:59.711Z,59.59
2023-03-30T13:48:52.957Z,60.02
2023-03-30T13:50:26.836Z,60.17
2023-03-30T13:52:02.088Z,60.36
2023-03-30T13:53:28.445Z,60.58
2023-03-30T13:54:57.928Z,60.71
2023-03-30T13:56:22.003Z,61.22
2023-03-30T13:57:44.705Z,61.54
2023-03-30T13:59:06.632Z,61.69
2023-03-30T14:00:48.644Z,62.17
2023-03-30T14:02:12.789Z,63.11
2023-03-30T14:03:54.080Z,61.99
2023-03-30T14:05:16.034Z,58.75
2023-03-30T14:06:51.588Z,54.80
2023-03-30T14:08:15.503Z,54.81
2023-03-30T14:10:00.488Z,55.96
2023-03-30T14:11:33.970Z,58.02
2023-03-30T14:12:55.629Z,59.10
2023-03-30T14:14:41.760Z,60.52
2023-03-30T14:16:03.888Z,61.58
2023-03-30T14:17:28.595Z,63.17
2023-03-30T14:18:50.640Z,64.32
2023-03-30T14:20:20.061Z,63.07
2023-03-30T14:22:05.246Z,60.04
2023-03-30T14:23:32.609Z,57.38
2023-03-30T14:24:56.759Z,56.54
2023-03-30T14:26:20.697Z,57.44
2023-03-30T14:27:44.655Z,58.85
2023-03-30T14:29:11.297Z,60.45
2023-03-30T14:30:34.995Z,61.71
2023-03-30T14:32:07.400Z,62.44
2023-03-30T14:33:42.851Z,64.60
2023-03-30T14:35:12.375Z,63.43
2023-03-30T14:36:33.792Z,61.34
2023-03-30T14:37:57.178Z,59.76
2023-03-30T14:39:44.439Z,56.93
2023-03-30T14:41:17.941Z,57.17
2023-03-30T14:43:02.710Z,58.66
2023-03-30T14:44:52.188Z,60.82
2023-03-30T14:46:26.238Z,62.94
2023-03-30T14:48:07.978Z,63.95
2023-03-30T14:49:30.278Z,62.43
2023-03-30T14:50:54.156Z,59.91
2023-03-30T14:52:30.021Z,57.25
2023-03-30T14:53:59.015Z,56.39
2023-03-30T14:55:32.786Z,57.71
2023-03-30T14:57:02.108Z,59.35
2023-03-30T14:58:35.552Z,60.82
2023-03-30T14:59:57.273Z,62.36
2023-03-30T15:01:23.574Z,64.28
2023-03-30T15:02:45.533Z,63.46
2023-03-30T15:04:08.011Z,61.61
2023-03-30T15:05:30.077Z,59.28
2023-03-30T15:07:14.825Z,56.51
2023-03-30T15:08:53.400Z,56.30
2023-03-30T15:10:15.315Z,57.71
2023-03-30T15:11:36.885Z,58.66
2023-03-30T15:12:58.722Z,60.16
2023-03-30T15:14:20.947Z,61.47
2023-03-30T15:16:03.484Z,62.12
2023-03-30T15:17:28.198Z,63.95
2023-03-30T15:19:13.353Z,62.62
2023-03-30T15:20:46.606Z,60.01
2023-03-30T15:22:22.319Z,57.02
2023-03-30T15:23:58.516Z,56.00
2023-03-30T15:25:51.788Z,57.05
2023-03-30T15:27:37.107Z,58.86
2023-03-30T15:29:06.157Z,60.14
2023-03-30T15:30:51.213Z,61.47
2023-03-30T15:32:36.728Z,62.46
2023-03-30T15:34:12.097Z,63.90
2023-03-30T15:35:58.060Z,62.49
2023-03-30T15:37:52.621Z,59.10
2023-03-30T15:39:46.196Z,56.14
2023-03-30T15:41:31.522Z,56.39
2023-03-30T15:43:16.330Z,57.94
2023-03-30T15:44:50.645Z,59.29
2023-03-30T15:46:40.891Z,60.60
2023-03-30T15:48:16.719Z,61.98
2023-03-30T15:49:50.597Z,63.34
2023-03-30T15:51:36.142Z,62.85
2023-03-30T15:53:09.813Z,59.87
2023-03-30T15:54:50.513Z,56.75
2023-03-30T15:56:32.018Z,56.12
2023-03-30T15:58:03.969Z,57.12
2023-03-30T15:59:49.293Z,58.59
2023-03-30T16:01:28.000Z,60.00
2023-03-30T16:03:02.049Z,60.93
2023-03-30T16:04:36.095Z,62.17
2023-03-30T16:06:12.080Z,63.69
2023-03-30T16:07:38.556Z,63.36
2023-03-30T16:09:23.068Z,60.75
2023-03-30T16:11:04.058Z,57.02
2023-03-30T16:12:57.545Z,56.00
2023-03-30T16:14:30.940Z,56.92
2023-03-30T16:16:16.179Z,58.39
2023-03-30T16:17:57.010Z,59.72
2023-03-30T16:19:38.655Z,61.01
2023-03-30T16:21:24.376Z,62.37
2023-03-30T16:23:09.721Z,63.88
2023-03-30T16:24:43.214Z,62.67
2023-03-30T16:26:16.887Z,60.03
2023-03-30T16:28:11.591Z,56.79
2023-03-30T16:29:33.260Z,56.38
2023-03-30T16:31:06.927Z,57.32
2023-03-30T16:32:40.431Z,58.75
2023-03-30T16:34:01.798Z,59.94
2023-03-30T16:35:42.259Z,61.05
2023-03-30T16:37:11.815Z,62.11
2023-03-30T16:38:47.168Z,63.76
2023-03-30T16:40:21.012Z,62.67
2023-03-30T16:41:55.049Z,60.35
2023-03-30T16:43:25.214Z,57.21
2023-03-30T16:44:46.793Z,56.13
2023-03-30T16:46:20.403Z,56.67
2023-03-30T16:47:42.811Z,57.89
2023-03-30T16:49:17.038Z,59.08
2023-03-30T16:51:02.887Z,60.57
2023-03-30T16:52:35.077Z,61.83
2023-03-30T16:54:30.335Z,63.00
2023-03-30T16:55:57.961Z,63.71
2023-03-30T16:57:20.052Z,61.44
2023-03-30T16:58:51.559Z,58.63
2023-03-30T17:00:36.964Z,56.23
2023-03-30T17:02:08.459Z,56.58
2023-03-30T17:03:32.837Z,57.83
2023-03-30T17:05:17.960Z,59.37
2023-03-30T17:06:39.878Z,60.72
2023-03-30T17:08:13.039Z,61.89
2023-03-30T17:09:37.629Z,63.16
2023-03-30T17:11:13.327Z,64.07
2023-03-30T17:12:59.565Z,62.06
2023-03-30T17:14:53.453Z,58.64
2023-03-30T17:16:29.371Z,56.89
2023-03-30T17:18:14.454Z,57.75
2023-03-30T17:19:59.490Z,59.72
2023-03-30T17:23:42.835Z,64.48
2023-03-30T17:25:28.444Z,63.61
2023-03-30T17:27:13.387Z,60.92
2023-03-30T17:28:42.089Z,58.56
2023-03-30T17:30:16.039Z,57.01
2023-03-30T17:31:56.913Z,57.86
2023-03-30T17:33:19.263Z,59.39
2023-03-30T17:34:59.828Z,61.23
2023-03-30T17:36:21.789Z,62.96
2023-03-30T17:38:07.899Z,64.64
2023-03-30T17:39:57.473Z,62.82
2023-03-30T17:41:46.472Z,59.99
2023-03-30T17:43:20.371Z,57.52
2023-03-30T17:45:05.195Z,57.28
2023-03-30T17:46:39.069Z,58.69
2023-03-30T17:48:08.405Z,60.45
2023-03-30T17:49:42.004Z,62.12
2023-03-30T17:51:31.583Z,64.14
2023-03-30T17:53:17.009Z,63.57
2023-03-30T17:55:11.538Z,60.81
2023-03-30T17:56:53.679Z,57.95
2023-03-30T17:58:29.172Z,56.90
2023-03-30T18:00:14.437Z,58.17
2023-03-30T18:01:55.855Z,60.00
2023-03-30T18:03:41.677Z,61.64
2023-03-30T18:05:23.238Z,63.73
2023-03-30T18:07:16.629Z,64.01
2023-03-30T18:08:59.469Z,61.35
2023-03-30T18:10:53.467Z,58.11
2023-03-30T18:12:23.174Z,56.93
2023-03-30T18:14:13.459Z,58.07
2023-03-30T18:15:43.389Z,60.04
2023-03-30T18:17:17.061Z,62.26
2023-03-30T18:18:45.522Z,64.40
2023-03-30T18:20:19.196Z,63.95
2023-03-30T18:21:53.235Z,61.68
2023-03-30T18:23:26.980Z,59.59
2023-03-30T18:24:50.718Z,57.45
2023-03-30T18:26:35.800Z,57.89
2023-03-30T18:28:08.004Z,59.49
2023-03-30T18:29:33.843Z,61.22
2023-03-30T18:31:03.218Z,62.69
2023-03-30T18:32:46.563Z,64.56
2023-03-30T18:34:30.330Z,63.22
2023-03-30T18:36:13.293Z,60.85
2023-03-30T18:37:43.246Z,58.07
2023-03-30T18:39:30.240Z,57.34
2023-03-30T18:41:05.193Z,58.48
2023-03-30T18:42:58.608Z,60.62
2023-03-30T18:44:28.189Z,62.68
2023-03-30T18:45:51.953Z,64.77
2023-03-30T18:47:13.741Z,64.15
2023-03-30T18:49:07.557Z,61.93
2023-03-30T18:50:53.257Z,59.47
2023-03-30T18:52:34.880Z,57.96
2023-03-30T18:54:04.108Z,58.76
2023-03-30T18:55:28.293Z,60.54
2023-03-30T18:56:52.362Z,62.41
2023-03-30T18:58:26.365Z,64.61
2023-03-30T19:00:02.689Z,64.80
2023-03-30T19:01:25.510Z,62.80
2023-03-30T19:03:14.300Z,60.80
2023-03-30T19:05:08.557Z,58.55
2023-03-30T19:06:38.194Z,58.00
2023-03-30T19:08:07.322Z,59.60
2023-03-30T19:09:50.510Z,61.39
2023-03-30T19:11:20.156Z,64.06
2023-03-30T19:12:54.856Z,65.18
2023-03-30T19:14:29.028Z,63.86
2023-03-30T19:16:05.994Z,61.53
2023-03-30T19:17:31.013Z,59.80
2023-03-30T19:19:15.824Z,58.06
2023-03-30T19:21:05.674Z,58.34
2023-03-30T19:22:37.587Z,60.55
2023-03-30T19:24:13.853Z,62.84
2023-03-30T19:25:42.831Z,65.19
2023-03-30T19:27:07.658Z,64.75
2023-03-30T19:28:48.731Z,63.10
2023-03-30T19:30:24.403Z,61.16
2023-03-30T19:31:53.783Z,59.46
2023-03-30T19:33:16.364Z,58.00
2023-03-30T19:34:59.508Z,58.51
2023-03-30T19:36:40.991Z,60.49
2023-03-30T19:38:26.141Z,63.09
2023-03-30T19:40:11.486Z,65.54
2023-03-30T19:41:47.293Z,64.17
2023-03-30T19:43:16.448Z,62.13
2023-03-30T19:45:01.420Z,60.33
2023-03-30T19:46:23.875Z,58.83
2023-03-30T19:47:45.549Z,57.87
2023-03-30T19:49:21.765Z,59.24
2023-03-30T19:50:51.307Z,61.47
2023-03-30T19:52:26.924Z,63.93
2023-03-30T19:54:02.718Z,65.36
2023-03-30T19:55:55.520Z,63.71
2023-03-30T19:57:19.386Z,61.50
2023-03-30T19:59:04.585Z,59.84
2023-03-30T20:02:28.353Z,59.09
2023-03-30T20:04:01.807Z,61.11
2023-03-30T20:05:55.084Z,63.79
2023-03-30T20:07:19.461Z,65.17
2023-03-30T20:08:41.082Z,63.99
2023-03-30T20:10:14.300Z,62.00
2023-03-30T20:11:47.759Z,60.77
2023-03-30T20:13:35.038Z,59.06
2023-03-30T20:15:11.028Z,58.23
2023-03-30T20:16:35.167Z,59.60
2023-03-30T20:17:59.344Z,61.52
2023-03-30T20:19:34.490Z,63.93
2023-03-30T20:20:58.593Z,65.41
2023-03-30T20:22:22.410Z,64.18
2023-03-30T20:23:43.916Z,62.51
2023-03-30T20:25:16.140Z,61.01
2023-03-30T20:27:01.093Z,59.61
2023-03-30T20:28:45.853Z,58.06
2023-03-30T20:30:21.566Z,58.93
2023-03-30T20:31:55.938Z,60.96
2023-03-30T20:33:46.617Z,63.79
2023-03-30T20:35:37.376Z,65.11
2023-03-30T20:37:11.247Z,63.22
2023-03-30T20:38:53.105Z,61.51
2023-03-30T20:40:41.206Z,59.74
2023-03-30T20:42:08.227Z,58.34
2023-03-30T20:43:53.276Z,58.78
2023-03-30T20:45:26.199Z,61.14
2023-03-30T20:47:09.804Z,63.47
2023-03-30T20:48:50.770Z,65.37
2023-03-30T20:50:12.652Z,64.01
2023-03-30T20:51:46.060Z,62.24
2023-03-30T20:53:15.135Z,60.18
2023-03-30T20:54:37.663Z,58.84
2023-03-30T20:56:18.348Z,58.07
2023-03-30T20:57:40.337Z,59.50
2023-03-30T20:59:14.226Z,61.36
2023-03-30T21:00:36.250Z,64.03
2023-03-30T21:02:12.685Z,65.15
2023-03-30T21:03:58.177Z,63.59
2023-03-30T21:05:38.953Z,61.42
2023-03-30T21:07:14.760Z,59.62
2023-03-30T21:08:49.264Z,57.95
2023-03-30T21:10:18.715Z,58.59
2023-03-30T21:11:52.068Z,60.61
2023-03-30T21:13:25.575Z,62.80
2023-03-30T21:15:01.154Z,65.20
2023-03-30T21:16:46.498Z,64.45